Time;durP1;ratioP1;P1;durP2;ratioP2;P2;SDS_P1;SDS_P2;PMS_P1;PMS_P2;Temp;Humidity;BMP_temperature;BMP_pressure;BME280_temperature;BME280_humidity;BME280_pressure;Samples;Min_cycle;Max_cycle;Signal;HPM_P1;HPM_P2
2022/09/08 00:01:20;;;;;;;15.23;12.27;;;;;;;17.35;87.79;99275.06;5113295;28;20038;-79
2022/09/08 00:03:46;;;;;;;15.50;10.50;;;;;;;17.33;88.30;99272.56;5113305;28;20027;-79
2022/09/08 00:06:16;;;;;;;16.23;10.65;;;;;;;17.33;88.33;99277.81;5113387;27;20107;-79
2022/09/08 00:08:43;;;;;;;16.20;11.97;;;;;;;17.29;88.98;99273.78;5128288;27;20096;-79
2022/09/08 00:11:10;;;;;;;13.82;11.32;;;;;;;17.28;88.71;99271.28;5113163;28;20020;-79
2022/09/08 00:13:39;;;;;;;17.52;11.32;;;;;;;17.26;89.40;99268.75;5113241;28;20422;-79
2022/09/08 00:16:07;;;;;;;15.40;11.40;;;;;;;17.27;89.63;99280.94;5112941;28;20062;-78
2022/09/08 00:18:33;;;;;;;14.75;11.00;;;;;;;17.21;89.60;99271.75;5113080;28;20015;-79
2022/09/08 00:20:59;;;;;;;14.05;12.13;;;;;;;17.26;89.89;99279.28;5112956;28;20030;-79
2022/09/08 00:23:24;;;;;;;16.38;11.45;;;;;;;17.25;89.95;99276.78;5113187;28;20015;-79
2022/09/08 00:25:50;;;;;;;15.00;11.07;;;;;;;17.23;89.82;99270.78;5113121;28;20023;-79
2022/09/08 00:28:15;;;;;;;12.50;11.10;;;;;;;17.20;90.03;99266.63;5112346;28;20102;-79
2022/09/08 00:30:40;;;;;;;16.25;11.65;;;;;;;17.20;90.21;99259.56;5112966;28;20387;-79
2022/09/08 00:33:05;;;;;;;16.58;11.82;;;;;;;17.17;90.14;99264.22;5112632;28;20908;-79
2022/09/08 00:35:31;;;;;;;15.60;11.60;;;;;;;17.10;90.70;99257.78;5112999;28;20027;-79
2022/09/08 00:37:56;;;;;;;17.42;12.55;;;;;;;17.13;90.66;99265.44;5112996;28;20023;-79
2022/09/08 00:40:23;;;;;;;16.98;11.13;;;;;;;17.14;90.80;99275.00;5112443;28;20028;-78
2022/09/08 00:43:04;;;;;;;14.48;12.15;;;;;;;17.10;90.71;99271.75;5112781;28;20051;-79
2022/09/08 00:45:37;;;;;;;15.45;12.43;;;;;;;17.09;91.02;99269.25;5112536;28;20536;-79
2022/09/08 00:48:16;;;;;;;13.38;11.55;;;;;;;17.01;91.06;99261.13;5112557;28;20020;-79
2022/09/08 00:50:44;;;;;;;17.45;12.27;;;;;;;17.08;90.79;99275.50;5112700;28;20029;-79
2022/09/08 00:53:13;;;;;;;16.48;12.95;;;;;;;17.08;91.06;99278.13;5112381;28;20015;-79
2022/09/08 00:55:39;;;;;;;17.08;13.35;;;;;;;17.01;91.09;99271.66;5112558;28;20031;-79
2022/09/08 00:58:06;;;;;;;15.57;12.68;;;;;;;17.04;91.11;99274.88;5112131;28;20380;-79
2022/09/08 01:00:35;;;;;;;17.60;12.73;;;;;;;16.96;91.42;99261.50;5112622;28;20106;-79
2022/09/08 01:03:00;;;;;;;16.38;12.35;;;;;;;17.04;91.34;99268.78;5112609;28;20032;-79
2022/09/08 01:05:35;;;;;;;17.92;13.43;;;;;;;17.01;91.29;99272.50;5112272;28;20043;-79
2022/09/08 01:14:00;;;;;;;15.63;12.23;;;;;;;16.89;91.30;99257.69;5112670;28;20062;-79
2022/09/08 01:16:26;;;;;;;17.55;13.05;;;;;;;17.00;91.52;99276.09;5112307;28;20414;-79
2022/09/08 01:18:56;;;;;;;18.60;12.02;;;;;;;17.01;91.29;99269.03;5112379;28;20040;-79
2022/09/08 01:21:43;;;;;;;16.17;13.38;;;;;;;17.02;91.49;99268.06;5112075;28;20020;-79
2022/09/08 01:24:41;;;;;;;16.15;13.45;;;;;;;17.03;91.33;99272.38;5112441;28;20092;-78
2022/09/08 01:27:39;;;;;;;15.50;12.00;;;;;;;17.02;91.21;99270.69;5111726;28;20024;-79
2022/09/08 01:30:08;;;;;;;18.88;12.98;;;;;;;16.95;91.26;99252.78;5069025;28;20037;-79
2022/09/08 01:32:37;;;;;;;16.00;12.13;;;;;;;16.94;91.05;99259.00;5069187;28;20040;-79
2022/09/08 01:35:03;;;;;;;20.77;13.70;;;;;;;16.91;90.98;99251.34;5069156;28;20170;-79
2022/09/08 01:37:29;;;;;;;20.23;12.82;;;;;;;16.90;91.17;99254.13;5069045;28;20032;-79
2022/09/08 01:39:56;;;;;;;16.73;12.98;;;;;;;16.88;91.39;99248.13;5072102;28;20432;-79
2022/09/08 01:42:21;;;;;;;15.75;12.60;;;;;;;16.86;91.29;99250.06;5072742;28;20127;-79
2022/09/08 01:44:47;;;;;;;16.10;13.15;;;;;;;16.80;91.12;99238.19;5072998;28;20032;-79
2022/09/08 01:47:12;;;;;;;17.30;13.10;;;;;;;16.80;91.15;99243.47;5072706;28;20035;-79
2022/09/08 01:49:37;;;;;;;19.60;13.85;;;;;;;16.83;91.15;99258.16;5072923;28;20029;-79
2022/09/08 01:52:03;;;;;;;19.25;12.75;;;;;;;16.72;91.26;99251.06;5072867;28;20473;-79
2022/09/08 01:54:28;;;;;;;20.00;12.98;;;;;;;16.78;91.08;99261.16;5072627;28;20024;-79
2022/09/08 01:56:55;;;;;;;18.75;11.93;;;;;;;16.77;91.01;99256.00;5072981;28;20155;-79
2022/09/08 01:59:21;;;;;;;16.05;13.45;;;;;;;16.74;90.72;99259.72;5072245;28;20032;-79
2022/09/08 02:01:46;;;;;;;21.70;14.60;;;;;;;16.69;90.70;99256.59;5072698;28;20033;-79
2022/09/08 02:04:12;;;;;;;16.95;12.55;;;;;;;16.70;90.57;99258.28;5072211;28;20044;-79
2022/09/08 02:06:38;;;;;;;15.60;12.48;;;;;;;16.68;90.41;99239.13;5111493;28;20031;-78
2022/09/08 02:09:03;;;;;;;16.35;12.57;;;;;;;16.70;90.22;99247.75;5116175;28;20440;-79
2022/09/08 02:11:29;;;;;;;15.70;12.63;;;;;;;16.70;90.26;99245.13;5115368;28;20024;-79
2022/09/08 02:13:55;;;;;;;16.98;13.13;;;;;;;16.69;90.10;99236.41;5115645;28;20020;-79
2022/09/08 02:16:20;;;;;;;19.45;14.35;;;;;;;16.64;90.12;99248.22;5115397;28;20020;-79
2022/09/08 02:18:46;;;;;;;19.70;12.52;;;;;;;16.57;90.01;99232.09;5115571;28;20027;-79
2022/09/08 02:21:17;;;;;;;26.75;14.23;;;;;;;16.54;90.05;99232.31;5115116;28;20035;-79
2022/09/08 02:23:46;;;;;;;21.15;13.05;;;;;;;16.50;90.12;99224.78;5115624;28;20090;-79
2022/09/08 02:26:18;;;;;;;17.27;12.98;;;;;;;16.42;90.18;99228.84;5115159;28;20023;-79
2022/09/08 02:28:43;;;;;;;20.70;12.23;;;;;;;16.49;90.21;99242.38;5115377;28;20120;-79
2022/09/08 02:31:09;;;;;;;15.00;12.77;;;;;;;16.41;90.11;99224.56;5115094;28;20075;-79
2022/09/08 02:33:35;;;;;;;16.17;12.48;;;;;;;16.44;90.28;99229.59;5115251;28;20465;-79
2022/09/08 02:36:01;;;;;;;21.55;15.40;;;;;;;16.44;90.42;99226.94;5115234;28;20023;-79
2022/09/08 02:38:27;;;;;;;20.85;13.23;;;;;;;16.36;90.29;99213.56;5115412;28;20027;-79
2022/09/08 02:40:52;;;;;;;16.05;12.43;;;;;;;16.39;90.00;99230.88;5115143;28;20031;-79
2022/09/08 02:43:18;;;;;;;15.85;12.40;;;;;;;16.41;90.54;99223.72;5114881;28;20026;-79
2022/09/08 02:45:44;;;;;;;16.90;12.90;;;;;;;16.34;90.65;99225.13;5115060;28;20479;-79
2022/09/08 02:48:10;;;;;;;17.90;12.70;;;;;;;16.31;90.63;99220.16;5114740;28;20084;-79
2022/09/08 02:50:35;;;;;;;18.15;12.45;;;;;;;16.32;90.77;99225.28;5114009;28;20024;-78
2022/09/08 02:53:00;;;;;;;19.08;13.13;;;;;;;16.24;90.48;99218.94;5115041;28;20023;-79
2022/09/08 02:55:26;;;;;;;16.15;12.18;;;;;;;16.25;90.66;99217.97;5114723;28;20031;-79
2022/09/08 02:57:52;;;;;;;18.08;13.93;;;;;;;16.23;90.73;99225.16;5114736;28;20030;-78
2022/09/08 03:00:18;;;;;;;24.90;13.57;;;;;;;16.11;90.77;99217.25;5114438;28;20061;-79
2022/09/08 03:02:44;;;;;;;22.05;13.00;;;;;;;16.09;90.90;99213.88;5114539;28;20456;-79
2022/09/08 03:05:10;;;;;;;18.70;13.43;;;;;;;16.03;91.13;99214.34;5114330;28;20042;-79
2022/09/08 03:07:37;;;;;;;18.80;13.07;;;;;;;16.03;91.24;99213.53;5115050;27;20100;-78
2022/09/08 03:10:04;;;;;;;18.92;12.25;;;;;;;16.01;91.28;99213.63;5114557;28;20127;-79
2022/09/08 03:12:30;;;;;;;18.88;12.88;;;;;;;16.02;91.33;99212.69;5114045;28;20499;-79
2022/09/08 03:14:55;;;;;;;18.17;12.45;;;;;;;16.08;91.16;99221.88;5114528;28;20028;-79
2022/09/08 03:17:21;;;;;;;15.95;12.20;;;;;;;16.03;91.29;99216.16;5114151;28;20061;-79
2022/09/08 03:19:46;;;;;;;16.95;12.73;;;;;;;16.01;91.40;99200.50;5114179;28;20672;-79
2022/09/08 03:22:12;;;;;;;19.98;13.73;;;;;;;16.05;91.44;99201.09;5114235;28;20024;-79
2022/09/08 03:24:37;;;;;;;15.20;11.98;;;;;;;16.03;91.40;99193.34;5114311;28;20421;-78
2022/09/08 03:27:03;;;;;;;17.13;13.15;;;;;;;16.00;91.32;99183.06;5114201;27;20016;-79
2022/09/08 03:29:29;;;;;;;19.08;13.35;;;;;;;15.94;91.60;99179.13;5114237;28;20035;-79
2022/09/08 03:31:55;;;;;;;16.73;12.57;;;;;;;16.02;91.47;99191.69;5114069;28;20372;-79
2022/09/08 03:34:20;;;;;;;16.20;12.98;;;;;;;16.03;91.51;99179.38;5113720;28;20030;-78
2022/09/08 03:36:45;;;;;;;22.98;14.90;;;;;;;16.01;91.34;99176.84;5114176;28;20383;-79
2022/09/08 03:39:11;;;;;;;21.02;13.02;;;;;;;16.02;91.15;99182.97;5114068;28;20631;-79
2022/09/08 03:41:36;;;;;;;15.50;12.18;;;;;;;15.93;91.24;99164.31;5113750;28;20432;-79
2022/09/08 03:44:02;;;;;;;23.08;14.55;;;;;;;16.02;91.23;99181.16;5113920;28;20037;-79
2022/09/08 03:46:27;;;;;;;20.20;14.55;;;;;;;15.98;91.13;99179.72;5113630;28;20019;-79
2022/09/08 03:48:52;;;;;;;18.75;13.43;;;;;;;16.00;91.02;99185.69;5113783;27;20023;-79
2022/09/08 03:51:22;;;;;;;20.85;13.48;;;;;;;15.98;90.86;99179.72;5113720;28;20497;-79
2022/09/08 03:53:48;;;;;;;18.75;13.00;;;;;;;15.97;90.74;99188.56;5113898;28;20456;-79
2022/09/08 03:56:14;;;;;;;19.63;13.25;;;;;;;15.98;90.73;99197.28;5113494;28;20097;-79
2022/09/08 03:58:39;;;;;;;15.88;12.02;;;;;;;15.91;90.57;99179.34;5113582;28;20020;-79
2022/09/08 04:01:13;;;;;;;16.30;12.73;;;;;;;15.98;90.51;99199.91;5113453;28;20058;-79
2022/09/08 04:03:38;;;;;;;18.85;13.23;;;;;;;15.96;90.48;99189.50;5113643;28;20029;-79
2022/09/08 04:06:04;;;;;;;20.92;14.25;;;;;;;15.91;90.58;99181.97;5113541;28;20365;-79
2022/09/08 04:08:30;;;;;;;20.92;13.93;;;;;;;15.89;90.58;99183.91;5113224;28;20069;-79
2022/09/08 04:10:56;;;;;;;19.20;13.85;;;;;;;15.80;90.77;99174.09;5113299;28;20028;-79
2022/09/08 04:13:21;;;;;;;22.98;15.40;;;;;;;15.80;90.94;99163.59;5112944;28;20019;-79
2022/09/08 04:15:47;;;;;;;19.35;13.32;;;;;;;15.77;90.90;99169.06;5113183;28;20119;-79
2022/09/08 04:18:12;;;;;;;19.65;15.07;;;;;;;15.75;91.29;99173.59;5113047;28;20023;-79
2022/09/08 04:20:38;;;;;;;20.65;14.88;;;;;;;15.75;91.25;99176.22;5113018;28;20027;-79
2022/09/08 04:23:04;;;;;;;17.27;14.55;;;;;;;15.71;91.30;99172.97;5113245;27;20023;-79
2022/09/08 04:25:29;;;;;;;19.23;14.52;;;;;;;15.64;91.63;99158.66;5112786;28;20476;-79
2022/09/08 04:27:55;;;;;;;19.58;14.00;;;;;;;15.67;91.54;99161.06;5113326;28;20058;-79
2022/09/08 04:30:21;;;;;;;19.17;14.13;;;;;;;15.66;91.40;99162.00;5112700;28;20027;-78
2022/09/08 04:32:46;;;;;;;20.20;14.30;;;;;;;15.67;91.42;99171.56;5112826;28;20024;-79
2022/09/08 04:35:12;;;;;;;20.25;14.00;;;;;;;15.68;91.42;99182.91;5113075;28;20677;-79
2022/09/08 04:37:38;;;;;;;17.98;13.73;;;;;;;15.69;91.32;99180.16;5112821;28;20504;-79
2022/09/08 04:40:04;;;;;;;20.20;14.63;;;;;;;15.63;91.49;99182.34;5112825;28;20069;-78
2022/09/08 04:42:29;;;;;;;22.13;13.70;;;;;;;15.63;91.47;99172.72;5112581;28;20016;-78
2022/09/08 04:44:54;;;;;;;20.25;13.23;;;;;;;15.70;91.36;99183.59;5112731;27;20019;-79
2022/09/08 04:47:20;;;;;;;18.80;13.48;;;;;;;15.74;91.24;99179.78;5112412;28;20555;-79
2022/09/08 04:49:45;;;;;;;18.25;13.90;;;;;;;15.77;91.05;99179.56;5112887;28;20447;-79
2022/09/08 04:52:11;;;;;;;20.67;14.43;;;;;;;15.77;90.89;99173.50;5112716;28;20016;-79
2022/09/08 04:54:36;;;;;;;21.45;14.85;;;;;;;15.80;90.55;99170.59;5112438;28;20452;-79
2022/09/08 04:57:02;;;;;;;22.38;15.10;;;;;;;15.84;90.56;99178.13;5112514;28;20015;-79
2022/09/08 04:59:28;;;;;;;20.27;13.70;;;;;;;15.90;90.30;99182.94;5112166;28;20452;-79
2022/09/08 05:01:53;;;;;;;19.15;14.27;;;;;;;15.99;90.18;99177.94;5112462;28;20023;-79
2022/09/08 05:04:19;;;;;;;20.58;14.73;;;;;;;16.04;89.87;99178.41;5112376;28;20039;-78
2022/09/08 05:06:44;;;;;;;20.73;15.18;;;;;;;16.11;89.58;99169.13;5112790;28;20054;-78
2022/09/08 05:09:11;;;;;;;25.42;15.52;;;;;;;16.18;89.16;99172.94;5112621;28;20015;-79
2022/09/08 05:11:36;;;;;;;22.55;14.88;;;;;;;16.27;88.84;99169.59;5112150;28;20027;-79
2022/09/08 05:14:03;;;;;;;22.73;14.43;;;;;;;16.47;88.12;99175.91;5111891;28;20020;-79
2022/09/08 05:16:30;;;;;;;21.35;15.10;;;;;;;16.55;87.62;99177.94;5112304;28;20030;-79
2022/09/08 05:19:01;;;;;;;20.38;14.73;;;;;;;16.64;86.81;99178.09;5112473;28;20069;-79
2022/09/08 05:21:28;;;;;;;23.00;14.45;;;;;;;16.84;86.63;99183.56;5112049;28;20052;-79
2022/09/08 05:23:56;;;;;;;18.73;14.20;;;;;;;17.19;85.14;99180.72;5112347;28;20024;-79
2022/09/08 05:26:23;;;;;;;20.05;13.60;;;;;;;17.38;83.68;99173.00;5111960;28;20030;-79
2022/09/08 05:28:49;;;;;;;21.60;13.68;;;;;;;17.35;83.56;99183.75;5112056;28;20019;-79
2022/09/08 05:31:20;;;;;;;19.08;13.77;;;;;;;17.08;84.43;99175.50;5112452;28;20103;-78
2022/09/08 05:33:46;;;;;;;21.73;14.98;;;;;;;17.05;84.86;99183.63;5112365;28;20027;-79
2022/09/08 05:36:15;;;;;;;20.77;16.25;;;;;;;17.02;85.12;99179.44;5112202;28;20065;-79
2022/09/08 05:38:41;;;;;;;22.17;15.50;;;;;;;17.09;84.92;99164.00;5112232;28;20024;-79
2022/09/08 05:41:06;;;;;;;21.15;14.40;;;;;;;17.36;84.53;99174.94;5112079;28;20028;-79
2022/09/08 05:43:32;;;;;;;21.50;13.73;;;;;;;17.54;84.01;99177.00;5111745;28;20031;-78
2022/09/08 05:45:57;;;;;;;20.45;14.45;;;;;;;17.58;83.26;99173.97;5110919;28;20510;-79
2022/09/08 05:48:23;;;;;;;25.73;15.75;;;;;;;17.64;82.75;99165.56;5111950;28;20079;-79
2022/09/08 05:50:48;;;;;;;22.05;15.18;;;;;;;17.74;82.82;99164.78;5111983;28;20027;-79
2022/09/08 05:53:14;;;;;;;26.05;16.52;;;;;;;17.69;82.42;99158.09;5111934;28;20030;-79
2022/09/08 05:55:40;;;;;;;20.00;14.45;;;;;;;17.76;83.06;99162.91;5111766;28;20023;-79
2022/09/08 05:58:12;;;;;;;24.35;15.95;;;;;;;17.86;82.34;99134.81;5108648;28;20028;-78
2022/09/08 06:00:38;;;;;;;17.85;15.40;;;;;;;18.18;81.66;99139.97;5111417;28;20078;-79
2022/09/08 06:03:03;;;;;;;22.35;14.68;;;;;;;18.50;80.68;99147.72;5097660;28;20016;-79
2022/09/08 06:05:28;;;;;;;19.13;14.50;;;;;;;18.69;80.19;99149.56;5093243;28;20044;-79
2022/09/08 06:07:54;;;;;;;23.05;14.70;;;;;;;18.49;79.78;99145.22;5091443;28;20018;-79
2022/09/08 06:10:20;;;;;;;23.98;15.68;;;;;;;18.66;79.21;99148.03;5091474;28;20027;-79
2022/09/08 06:12:46;;;;;;;18.50;13.32;;;;;;;18.50;80.14;99149.50;5091200;28;20039;-79
2022/09/08 06:15:12;;;;;;;21.40;16.48;;;;;;;18.33;80.41;99150.97;5091605;28;20024;-79
2022/09/08 06:17:38;;;;;;;25.40;15.90;;;;;;;18.30;80.72;99132.81;5091419;28;20020;-79
2022/09/08 06:20:05;;;;;;;23.73;16.52;;;;;;;18.62;79.94;99125.53;5091519;28;20039;-79
2022/09/08 06:22:34;;;;;;;19.95;14.55;;;;;;;18.81;79.36;99123.94;5091182;28;20020;-79
2022/09/08 06:25:00;;;;;;;19.85;14.48;;;;;;;18.82;79.15;99134.34;5091293;28;20074;-79
2022/09/08 06:27:42;;;;;;;25.13;15.70;;;;;;;18.82;79.83;99152.00;5094699;28;20016;-79
2022/09/08 06:30:12;;;;;;;21.20;15.52;;;;;;;18.76;79.52;99145.47;5095050;28;20034;-79
2022/09/08 06:32:47;;;;;;;21.25;15.95;;;;;;;18.87;79.46;99140.06;5094689;28;20364;-79
2022/09/08 06:35:28;;;;;;;18.42;15.20;;;;;;;18.98;78.99;99140.91;5094817;28;20048;-79
2022/09/08 06:37:57;;;;;;;25.33;15.38;;;;;;;19.27;78.65;99147.03;5095190;28;20024;-79
2022/09/08 06:40:24;;;;;;;20.38;15.23;;;;;;;19.39;77.83;99131.91;5094561;28;20028;-79
2022/09/08 06:43:25;;;;;;;17.90;13.88;;;;;;;20.04;76.92;99140.00;5095051;28;20016;-79
2022/09/08 06:45:53;;;;;;;21.63;13.35;;;;;;;20.34;75.48;99133.63;5094398;28;20042;-79
2022/09/08 06:48:30;;;;;;;19.67;13.55;;;;;;;20.49;74.58;99132.19;5094803;28;20020;-79
2022/09/08 06:50:58;;;;;;;18.80;15.00;;;;;;;20.47;74.51;99135.91;5094546;28;20461;-79
2022/09/08 06:53:27;;;;;;;23.98;17.17;;;;;;;20.25;75.33;99127.38;5094597;28;20028;-79
2022/09/08 06:56:24;;;;;;;17.70;13.88;;;;;;;20.35;75.72;99130.84;5094438;28;20028;-79
2022/09/08 06:58:56;;;;;;;21.15;14.93;;;;;;;20.57;75.84;99113.75;5094560;28;20103;-79
2022/09/08 07:01:30;;;;;;;19.50;14.23;;;;;;;20.79;75.22;99119.63;5094396;28;20046;-79
2022/09/08 07:04:35;;;;;;;17.45;12.60;;;;;;;21.37;73.90;99132.44;5094099;28;20082;-79
2022/09/08 07:07:18;;;;;;;21.90;14.63;;;;;;;21.46;72.99;99131.53;5071524;28;20389;-79
2022/09/08 07:10:01;;;;;;;17.83;13.10;;;;;;;21.74;72.91;99128.72;5071384;28;20362;-79
2022/09/08 07:12:37;;;;;;;19.40;14.18;;;;;;;21.95;71.55;99129.19;5071073;28;20064;-79
2022/09/08 07:15:11;;;;;;;15.93;13.45;;;;;;;22.21;70.80;99131.03;5071304;28;20099;-79
2022/09/08 07:17:46;;;;;;;19.02;13.95;;;;;;;22.12;70.29;99122.16;5071029;28;20044;-79
2022/09/08 07:20:12;;;;;;;18.90;13.15;;;;;;;23.08;69.35;99108.56;5071487;28;20115;-79
2022/09/08 07:22:43;;;;;;;18.27;13.13;;;;;;;24.05;65.88;99117.50;5070902;28;20036;-79
2022/09/08 07:25:32;;;;;;;17.92;12.65;;;;;;;25.69;62.55;99114.69;5071084;28;20035;-79
2022/09/08 07:28:11;;;;;;;17.45;12.40;;;;;;;27.99;55.56;99114.03;5071428;28;20429;-79
2022/09/08 07:30:37;;;;;;;17.60;12.25;;;;;;;29.95;52.08;99118.41;5070640;28;20028;-80
2022/09/08 07:33:16;;;;;;;17.35;11.65;;;;;;;32.64;47.14;99116.13;5071011;28;20028;-79
2022/09/08 07:35:56;;;;;;;13.30;11.23;;;;;;;34.69;42.23;99106.44;5070850;28;20020;-80
2022/09/08 07:38:33;;;;;;;13.70;9.93;;;;;;;35.71;41.62;99102.78;5070965;28;20536;-80
2022/09/08 07:40:59;;;;;;;14.23;9.30;;;;;;;37.59;38.38;99103.25;5070862;28;20021;-80
2022/09/08 07:43:26;;;;;;;17.23;10.75;;;;;;;35.27;40.22;99110.75;5080450;28;20128;-80
2022/09/08 07:46:28;;;;;;;16.13;11.77;;;;;;;34.25;40.44;99106.88;5093368;28;20028;-80
2022/09/08 07:49:14;;;;;;;15.52;9.88;;;;;;;34.53;41.25;99101.78;5070783;28;20039;-80
2022/09/08 07:51:54;;;;;;;15.38;10.18;;;;;;;33.72;42.16;99088.97;5070488;28;20456;-80
2022/09/08 07:54:35;;;;;;;15.75;10.02;;;;;;;32.84;43.83;99095.09;5066927;28;20036;-80
2022/09/08 07:57:08;;;;;;;14.57;10.27;;;;;;;32.90;44.21;99102.25;5053700;28;20241;-80
2022/09/08 07:59:55;;;;;;;14.27;10.55;;;;;;;31.05;46.53;99113.84;5077761;28;20504;-80
2022/09/08 08:02:32;;;;;;;14.60;11.80;;;;;;;28.96;50.60;99107.63;5082235;28;20013;-80
2022/09/08 08:05:09;;;;;;;15.07;11.48;;;;;;;27.48;54.14;99111.56;5069932;28;20131;-80
2022/09/08 08:07:48;;;;;;;13.60;11.77;;;;;;;26.43;57.15;99122.75;5086532;28;20024;-80
2022/09/08 08:10:25;;;;;;;20.30;11.90;;;;;;;25.50;59.68;99108.06;5090578;28;20028;-79
2022/09/08 08:13:20;;;;;;;13.35;9.88;;;;;;;24.87;62.26;99115.34;5086882;28;20190;-79
2022/09/08 08:15:55;;;;;;;17.60;10.70;;;;;;;24.33;63.60;99105.41;5050039;28;20103;-79
2022/09/08 08:18:30;;;;;;;14.25;10.95;;;;;;;24.36;64.15;99115.72;5050155;28;20385;-79
2022/09/08 08:21:13;;;;;;;15.98;11.90;;;;;;;23.80;65.70;99108.75;5050034;28;20144;-79
2022/09/08 08:23:54;;;;;;;19.60;13.95;;;;;;;23.53;66.53;99110.75;5049725;28;20033;-79
2022/09/08 08:26:25;;;;;;;13.80;11.18;;;;;;;23.29;67.91;99100.94;5049900;28;20029;-79
2022/09/08 08:29:19;;;;;;;16.77;13.43;;;;;;;23.25;68.33;99104.94;5049854;28;20037;-79
2022/09/08 08:31:51;;;;;;;19.02;12.30;;;;;;;23.22;68.84;99105.28;5049755;28;20087;-79
2022/09/08 08:34:24;;;;;;;12.32;10.98;;;;;;;23.13;69.41;99101.78;5049561;28;20067;-79
2022/09/08 08:36:53;;;;;;;16.92;11.50;;;;;;;22.96;70.28;99086.00;5049575;28;20114;-79
2022/09/08 08:39:21;;;;;;;19.40;12.35;;;;;;;23.12;69.98;99089.50;5049819;28;20466;-79
2022/09/08 08:41:46;;;;;;;16.67;11.98;;;;;;;23.02;70.36;99088.84;5049590;28;20035;-79
2022/09/08 08:44:49;;;;;;;15.10;11.68;;;;;;;22.89;71.41;99088.47;5049821;28;20543;-79
2022/09/08 08:47:39;;;;;;;16.25;12.75;;;;;;;22.74;72.16;99088.25;5049702;28;20037;-79
2022/09/08 08:50:30;;;;;;;16.00;12.82;;;;;;;22.70;72.33;99070.16;5049468;28;20027;-79
2022/09/08 08:53:34;;;;;;;16.00;12.45;;;;;;;22.67;72.99;99066.84;5075342;28;20392;-79
2022/09/08 08:56:24;;;;;;;16.77;11.63;;;;;;;22.74;73.09;99050.25;5092420;28;20031;-79
2022/09/08 08:59:16;;;;;;;19.23;12.60;;;;;;;22.74;73.50;99055.56;5092107;28;20094;-79
2022/09/08 09:02:10;;;;;;;17.77;12.48;;;;;;;22.77;73.90;99060.56;5092079;28;20025;-79
2022/09/08 09:05:06;;;;;;;21.77;12.30;;;;;;;22.97;74.02;99061.13;5092010;28;20044;-79
2022/09/08 09:07:34;;;;;;;18.23;11.98;;;;;;;23.02;73.80;99069.41;5092126;28;20024;-79
2022/09/08 09:10:17;;;;;;;14.60;11.80;;;;;;;23.08;73.45;99063.44;5092525;28;20028;-79
2022/09/08 09:13:14;;;;;;;17.45;12.02;;;;;;;23.05;74.05;99053.13;5091979;28;20034;-79
2022/09/08 09:16:18;;;;;;;14.38;11.45;;;;;;;22.98;74.50;99062.78;5097104;28;20121;-79
2022/09/08 09:19:00;;;;;;;17.67;11.80;;;;;;;23.14;75.15;99060.94;5081683;28;20036;-79
2022/09/08 09:21:43;;;;;;;18.92;12.82;;;;;;;23.34;74.12;99055.28;5071859;28;20040;-79
2022/09/08 09:24:21;;;;;;;17.88;11.27;;;;;;;23.38;74.45;99046.78;5073716;28;20066;-79
2022/09/08 09:26:53;;;;;;;15.32;11.98;;;;;;;23.32;73.95;99036.84;5089128;28;20031;-79
2022/09/08 09:29:25;;;;;;;13.48;11.40;;;;;;;23.44;74.75;99039.16;5089174;28;20386;-79
2022/09/08 09:32:09;;;;;;;11.82;10.57;;;;;;;23.61;74.60;99044.28;5089092;28;20028;-79
2022/09/08 09:35:10;;;;;;;14.50;12.48;;;;;;;23.68;73.88;99049.75;5068983;28;20457;-79
2022/09/08 09:38:13;;;;;;;17.52;13.50;;;;;;;23.71;73.44;99041.44;5068992;28;20036;-79
2022/09/08 09:40:57;;;;;;;21.00;12.70;;;;;;;23.70;73.67;99045.13;5068899;28;20485;-79
2022/09/08 09:44:02;;;;;;;15.05;12.65;;;;;;;23.75;72.84;99042.78;5069063;28;20067;-79
2022/09/08 09:46:37;;;;;;;15.60;11.50;;;;;;;23.74;73.84;99041.13;4989810;28;20081;-79
2022/09/08 09:49:22;;;;;;;14.52;10.85;;;;;;;23.93;74.03;99044.38;4989646;28;20042;-79
2022/09/08 09:52:10;;;;;;;15.00;10.35;;;;;;;24.11;73.67;99050.31;4970022;28;20091;-79
2022/09/08 09:55:03;;;;;;;19.30;12.48;;;;;;;24.04;72.89;99042.19;4956375;28;20038;-79
2022/09/08 09:57:28;;;;;;;16.55;11.80;;;;;;;24.17;72.85;99048.78;4989579;28;20031;-80
2022/09/08 10:00:04;;;;;;;11.27;9.63;;;;;;;24.30;72.71;99036.56;4990788;28;20075;-80
2022/09/08 10:02:51;;;;;;;12.98;10.20;;;;;;;24.45;72.29;99036.69;4993502;28;20125;-80
2022/09/08 10:05:44;;;;;;;12.95;10.50;;;;;;;24.60;72.05;99050.06;4993221;28;20097;-80
2022/09/08 10:08:34;;;;;;;15.10;11.55;;;;;;;24.57;71.33;99029.97;4993461;28;20033;-80
2022/09/08 10:11:12;;;;;;;10.93;9.75;;;;;;;24.70;72.04;99028.56;4993173;28;20049;-80
2022/09/08 10:13:59;;;;;;;12.07;10.80;;;;;;;24.76;71.06;99020.66;4993067;28;20030;-80
2022/09/08 10:16:43;;;;;;;13.35;10.98;;;;;;;24.81;71.27;99033.44;4993238;28;20070;-80
2022/09/08 10:19:30;;;;;;;11.75;10.27;;;;;;;24.67;71.14;99029.72;4993140;28;20100;-80
2022/09/08 10:22:14;;;;;;;16.63;12.48;;;;;;;24.75;71.44;99019.03;4992833;28;20030;-80
2022/09/08 10:24:49;;;;;;;12.32;11.20;;;;;;;24.72;71.60;99010.56;5010961;28;20143;-80
2022/09/08 10:27:42;;;;;;;12.18;10.88;;;;;;;24.79;71.98;99016.84;5012711;28;20030;-80
2022/09/08 10:30:29;;;;;;;13.55;11.27;;;;;;;24.76;71.68;99020.66;5012588;28;20133;-79
2022/09/08 10:33:16;;;;;;;12.18;10.88;;;;;;;24.73;72.01;99015.69;5094633;28;20123;-79
2022/09/08 10:35:44;;;;;;;12.57;11.25;;;;;;;24.84;71.86;99011.78;5094594;28;20457;-80
2022/09/08 10:38:10;;;;;;;15.98;11.25;;;;;;;24.87;71.40;99003.47;5094876;28;20028;-80
2022/09/08 10:40:59;;;;;;;17.88;11.50;;;;;;;24.82;71.11;98995.19;5094716;28;20449;-80
2022/09/08 10:43:37;;;;;;;16.70;12.07;;;;;;;24.90;71.29;99011.06;5094701;28;20023;-80
2022/09/08 10:46:08;;;;;;;15.88;11.60;;;;;;;24.94;71.64;99012.38;5094586;28;20108;-80
2022/09/08 10:49:03;;;;;;;15.60;11.68;;;;;;;24.96;71.52;99007.69;5094822;28;20157;-80
2022/09/08 10:51:38;;;;;;;13.73;12.27;;;;;;;24.94;70.79;99009.69;5051868;28;20033;-79
2022/09/08 10:54:25;;;;;;;14.95;11.07;;;;;;;24.83;71.02;99012.81;5051582;28;20021;-79
2022/09/08 10:56:56;;;;;;;15.02;11.27;;;;;;;24.59;71.60;98998.66;5051522;28;20043;-79
2022/09/08 10:59:37;;;;;;;13.80;10.27;;;;;;;24.67;72.38;99003.09;5051728;28;20025;-79
2022/09/08 11:02:20;;;;;;;15.13;10.70;;;;;;;24.70;72.99;99008.09;5051325;28;20029;-79
2022/09/08 11:05:08;;;;;;;13.68;11.52;;;;;;;24.71;72.48;99006.25;5051213;28;20132;-79
2022/09/08 11:07:54;;;;;;;13.20;11.90;;;;;;;24.78;72.67;99000.03;5051452;28;20028;-79
2022/09/08 11:10:41;;;;;;;16.63;11.88;;;;;;;24.87;71.81;99003.47;5018076;28;20089;-79
2022/09/08 11:13:18;;;;;;;12.35;11.15;;;;;;;24.93;71.78;99000.06;5050995;28;20108;-79
2022/09/08 11:16:02;;;;;;;14.25;10.65;;;;;;;24.97;72.08;98990.69;5051344;28;20124;-79
2022/09/08 11:19:04;;;;;;;13.50;11.55;;;;;;;25.03;71.82;98981.16;5051300;28;20028;-79
2022/09/08 11:21:40;;;;;;;15.93;11.80;;;;;;;24.97;72.26;98988.03;5051200;28;20036;-79
2022/09/08 11:24:17;;;;;;;14.20;12.48;;;;;;;24.98;72.38;98989.69;5051210;28;20052;-79
2022/09/08 11:27:00;;;;;;;12.63;11.32;;;;;;;25.05;72.71;98981.81;5051115;28;20147;-79
2022/09/08 11:29:35;;;;;;;15.43;11.90;;;;;;;25.12;71.77;98985.47;5092443;28;20035;-79
2022/09/08 11:32:25;;;;;;;16.35;11.98;;;;;;;25.14;71.57;98968.25;5093467;28;20674;-79
2022/09/08 11:35:24;;;;;;;12.52;11.00;;;;;;;25.25;72.29;98971.50;5095622;28;20234;-79
2022/09/08 11:38:14;;;;;;;18.00;12.63;;;;;;;25.17;72.02;98975.06;5093471;28;20453;-79
2022/09/08 11:40:59;;;;;;;13.55;11.63;;;;;;;25.15;72.82;98969.09;5093265;28;20097;-79
2022/09/08 11:44:01;;;;;;;13.18;11.68;;;;;;;25.05;72.30;98963.16;5093190;28;20020;-79
2022/09/08 11:47:02;;;;;;;13.32;11.70;;;;;;;24.97;71.95;98971.22;5093103;28;20024;-79
2022/09/08 11:50:04;;;;;;;15.10;10.60;;;;;;;24.92;72.48;98957.63;5093030;28;20024;-79
2022/09/08 11:52:54;;;;;;;17.30;11.82;;;;;;;24.95;73.00;98958.09;5093126;28;20020;-79